Tiempo atmosférico en la estación meteorológica de Pontevedra, Pontevedra (108 m.)



Fecha
DESCASC
Temp. máxima en grados centígrados (hora)
DESCASC
Temp. mínima en grados centígrados (hora)
DESCASC
Temp. media en grados centígrados
DESCASC
Racha de viento máxima en m/sg (hora)
DESCASC
Velocidad máxima media en intervalos de 10 minutos(hora)
DESCASC
Precipitaciones diarias en mm
DESCASC
Precipitaciones de 00:00 a 06:00 en mm
DESCASC
Precipitaciones de 06:00 a 12:00 en mm
DESCASC
Precipitaciones de 12:00 a 18:00 en mm
DESCASC
Precipitaciones de 18:00 a 24:00 en mm
DESCASC
14-02-2019 21.4 (15:30) 7.9 (03:50) 14.6 7.22 (02:40) 5.28 (02:40) 0 0 0 0 0
13-02-2019 18.4 (14:20) 5.8 (07:50) 12.1 6.94 (09:30) 4.72 (03:50) 0 0 0 0 0
12-02-2019 16.7 (15:00) 5.5 (09:00) 11.1 5 (23:10) 3.89 (23:59) 0 0 0 0 0
11-02-2019 16.5 (16:50) 4.3 (08:00) 10.4 6.67 (17:00) 4.44 (17:00) 0 0 0 0 0
10-02-2019 13.9 (16:30) 6.2 (00:00) 10 18.61 (03:10) 8.61 (00:50) 11.4 7 4.4 0 0
09-02-2019 12.8 (23:50) 11 (00:00) 11.9 15.83 (23:50) 8.33 (23:50) 0.6 0 0 0.2 0.4
08-02-2019 12 (14:00) 4.4 (00:00) 8.2 9.72 (15:10) 4.72 (18:30) 0.2 0 0 0 0.2
07-02-2019 13.5 (14:40) 5.8 (00:00) 9.7 6.11 (16:00) 3.61 (16:20) 6 3.2 2.8 0 0
06-02-2019 14.1 (14:20) 6.1 (07:40) 10.1 8.06 (15:20) 4.72 (15:20) 2.4 0 0 0 2.4
05-02-2019 15 (16:40) 9 (02:50) 12 5 (18:00) 2.78 (16:20) 0 0 0 0 0
04-02-2019 10.1 (17:00) 2.8 (00:00) 6.5 4.17 (03:20) 3.06 (03:20) 0 0 0 0 0
03-02-2019 11.9 (16:40) 1.2 (00:00) 6.5 5 (03:10) 3.61 (03:10) 0 0 0 0 0
02-02-2019 10.4 (14:40) 2.5 (00:00) 6.4 13.33 (03:00) 7.22 (01:50) 1.4 0.6 0 0.8 0
01-02-2019 9.8 (03:30) 6 (00:00) 7.9 22.78 (03:30) 11.67 (03:50) 16.6 4.2 4 7.6 0.8
31-01-2019 13 (13:40) 8 (00:00) 10.5 17.5 (12:10) 9.44 (13:50) 52.8 29.8 13 7.2 2.8
30-01-2019 12.6 (20:20) 4.9 (00:00) 8.8 14.17 (17:20) 8.06 (18:50) 37.6 0 0 0 37.6
29-01-2019 12 (13:30) 7.3 (00:00) 9.7 17.22 (11:40) 9.44 (12:00) 13.2 3.2 7.6 2.4 0
28-01-2019 13.6 (16:00) 7.7 (00:00) 10.7 8.06 (15:30) 4.72 (15:40) 1 0.2 0.8 0 0
27-01-2019 12.3 (16:30) 6.6 (00:00) 9.5 8.06 (02:00) 5 (15:50) 3 3 0 0 0
26-01-2019 13.8 (14:10) 3.6 (00:00) 8.7 5.28 (15:50) 3.33 (00:20) 0 0 0 0 0
25-01-2019 14.6 (16:50) 8.4 (00:00) 11.5 8.89 (12:50) 4.17 (14:10) 0 0 0 0 0
24-01-2019 14 (16:40) 10.2 (00:00) 12.1 8.06 (16:00) 3.89 (15:30) 0.2 0.2 0 0 0
23-01-2019 13.1 (16:20) 8.8 (00:00) 11 9.44 (16:10) 5.83 (16:10) 1 0.4 0.2 0.2 0.2
22-01-2019 10.5 (15:30) 6.3 (00:00) 8.4 8.33 (14:10) 3.89 (14:00) 6.6 0 2.6 3.8 0.2
21-01-2019 11.8 (14:00) 5.2 (00:00) 8.5 5.83 (16:00) 3.89 (16:00) 0 0 0 0 0
20-01-2019 12.2 (14:40) 6.9 (00:00) 9.5 7.78 (02:00) 5 (16:30) 0.6 0 0 0.6 0
19-01-2019 12.7 (15:50) 7.4 (00:00) 10 11.94 (14:50) 6.67 (14:50) 48.2 2.2 23.2 21.6 1.2

Gráficas

Temp. máximas Temp. mínimas Temp. medias Precipitaciones Rachas de viento máximas Velocidades máximas media en intervalos de 10 minutos

Datos horarios

Fecha y hora oficial Temperatura (ºC) Velocidad del viento (km/h) Dirección del viento Racha (km/h) Dirección de racha Precipitación (mm) Presión (hPa) Tendencia (hPa) Humedad (%)
2019-02-17 23:00:00 8.9 2 Norte 10 Norte 0.4 1004.4 -0.1 96
2019-02-17 22:00:00 9.1 5 Nordeste 11 Nordeste 0.6 1004.4 0.4 96
2019-02-17 21:00:00 9.4 3 Sur 9 Nordeste 1.6 1004.7 1.1 95
2019-02-17 20:00:00 9.5 2 Norte 11 Nordeste 0.6 1004.5 1.6 93
2019-02-17 19:00:00 9.8 5 Norte 11 Oeste 1.8 1004 0.8 90
2019-02-17 18:00:00 10.6 5 Nordeste 29 Oeste 0 1003.6 -0.2 85
2019-02-17 17:00:00 14 15 Sur 30 Sur 0 1002.9 -1.7 71
2019-02-17 16:00:00 14.5 12 Sur 27 Sur 0 1003.2 -2.1 68
2019-02-17 15:00:00 14.8 11 Sur 23 Sur 0 1003.8 -2.1 69
2019-02-17 14:00:00 14.6 9 Sur 23 Sur 0 1004.6 -1.5 68
2019-02-17 13:00:00 13.6 5 Sur 24 Sur 0 1005.3 -0.7 71
2019-02-17 12:00:00 13.2 7 Sur 16 Sur 0 1005.9 0.1 71
2019-02-17 11:00:00 11.4 7 Sur 11 Sur 0 1006.1 0.8 74
2019-02-17 10:00:00 10.7 4 Sudeste 7 Sur 0 1006 0.4 73
2019-02-17 09:00:00 9.4 4 Sudeste 8 Sudeste 0 1005.8 0.4 74
2019-02-17 08:00:00 9.7 3 Sur 13 Sudeste 0 1005.3 -0.2 72
2019-02-17 07:00:00 9.4 2 Sudeste 6 Sudoeste 0 1005.6 -0.1 72
2019-02-17 06:00:00 10.3 4 Sudeste 14 Sudeste 0 1005.4 -0.5 68
2019-02-17 05:00:00 10.1 3 Oeste 14 Sudeste 0 1005.5 -0.8 67
2019-02-17 04:00:00 10.3 7 Sudeste 14 Sudeste 0 1005.7 -0.7 66
2019-02-17 03:00:00 10.1 4 Sudeste 8 Sudeste 0 1005.9 -0.6 66
2019-02-17 02:00:00 9.5 3 Noroeste 7 Este 0 1006.3 -0.6 71
2019-02-17 01:00:00 9.3 0 Calma 9 Sudeste 0 1006.4 -1.1 73
2019-02-17 00:00:00 9.4 4 Sudeste 14 Este 0 1006.5 -0.7 75
2019-02-16 23:00:00 9.5 11 Este 15 Este 0 1006.9 -0.3 74
2019-02-16 22:00:00 10.6 3 Este 8 Este 0 1007.5 0.9 70
2019-02-16 21:00:00 11.9 6 Este 8 Este 0 1007.2 1.2 68
2019-02-16 20:00:00 12.6 2 Nordeste 10 Sudoeste 0 1007.2 1.6 65
2019-02-16 19:00:00 14.2 7 Sudoeste 27 Sudoeste 0 1006.6 0.5 56
2019-02-16 18:00:00 16.9 9 Sudoeste 21 Sudoeste 0 1006 -0.8 49
2019-02-16 17:00:00 18.9 7 Sudoeste 17 Sudoeste 0 1005.6 -2.2 44
2019-02-16 16:00:00 18.9 8 Sudoeste 16 Sudoeste 0 1006.1 -2.8 41
2019-02-16 15:00:00 20.2 6 Oeste 10 Oeste 0 1006.8 -2.4 42
2019-02-16 14:00:00 19.3 5 Sur 14 Sudoeste 0 1007.8 -1.6 43
2019-02-16 13:00:00 16.7 6 Sudoeste 11 Sudoeste 0 1008.9 -0.7 54
2019-02-16 12:00:00 14.4 4 Noroeste 6 Oeste 0 1009.2 -0.2 62
2019-02-16 11:00:00 12 2 Noroeste 10 Este 0 1009.4 0.4 65
2019-02-16 10:00:00 10.3 6 Este 14 Nordeste 0 1009.6 0.5 65
2019-02-16 09:00:00 8.2 10 Nordeste 16 Nordeste 0 1009.4 0.4 72
2019-02-16 08:00:00 8.2 11 Nordeste 15 Nordeste 0 1009 -0.2 72
2019-02-16 07:00:00 7.6 6 Sudeste 8 Nordeste 0 1009.1 -0.7 79
2019-02-16 06:00:00 7.6 5 Este 14 Nordeste 0 1009 -1.4 78
2019-02-16 05:00:00 7.3 9 Nordeste 13 Este 0 1009.2 -1.9 81
2019-02-16 04:00:00 8.6 4 Este 17 Nordeste 0 1009.8 -1.5 76
2019-02-16 03:00:00 8.4 11 Este 18 Nordeste 0 1010.4 -1.1 79
2019-02-16 02:00:00 9.6 10 Nordeste 15 Nordeste 0 1011.1 -0.7 74
2019-02-16 01:00:00 9.9 13 Este 18 Este 0 1011.3 -0.3 73
2019-02-16 00:00:00 11 15 Este 23 Este 0 1011.5 0.3 70
2019-02-15 23:00:00 11.5 15 Este 20 Nordeste 0 1011.8 0.9 69
2019-02-15 22:00:00 12 11 Nordeste 15 Nordeste 0 1011.6 1 70
2019-02-15 21:00:00 13.2 10 Nordeste 13 Este 0 1011.2 0.7 69
2019-02-15 20:00:00 14.6 7 Nordeste 10 Nordeste 0 1010.9 0.3 60
2019-02-15 19:00:00 15.9 3 Sudeste 4 Sudeste 0 1010.6 -0.4 52
2019-02-15 18:00:00 17.7 4 Sudoeste 10 Oeste 0 1010.5 -0.9 49
2019-02-15 17:00:00 18.1 7 Sudoeste 13 Oeste 0 1010.6 -1.2 43
2019-02-15 16:00:00 18.3 6 Sudoeste 12 Oeste 0 1011 -1.1 41
2019-02-15 15:00:00 18.8 6 Sudoeste 14 Sudoeste 0 1011.4 -0.5 35
2019-02-15 14:00:00 18.2 5 Oeste 10 Sudoeste 0 1011.8 0.3 38
2019-02-15 13:00:00 16.9 0 Calma 8 Oeste 0 1012.1 1.2 51
2019-02-15 12:00:00 14.4 3 Sudoeste 6 Sur 0 1011.9 1.8 51
2019-02-15 11:00:00 12.1 2 Sudoeste 12 Este 0 1011.5 2 52
2019-02-15 10:00:00 10.6 0 Calma 17 Nordeste 0 1010.9 1.8 56
2019-02-15 09:00:00 10.7 8 Este 17 Nordeste 0 1010.1 1.2 53
2019-02-15 08:00:00 11.1 8 Este 10 Este 0 1009.5 0.8 48
2019-02-15 07:00:00 10.4 0 Calma 3 Sur 0 1009.1 0.3 52
2019-02-15 06:00:00 10.4 3 Sudeste 5 Sur 0 1008.9 0.2 51
2019-02-15 05:00:00 10 4 Sudeste 9 Este 0 1008.7 -0.3 54
2019-02-15 04:00:00 11.4 4 Sudeste 12 Nordeste 0 1008.8 -0.3 49
2019-02-15 03:00:00 11.2 9 Nordeste 16 Nordeste 0 1008.7 -0.3 54
2019-02-15 02:00:00 11.9 9 Nordeste 13 Nordeste 0 1009 0.3 53
2019-02-15 01:00:00 12.6 8 Este 12 Este 0 1009.1 0.6 51
2019-02-15 00:00:00 11.6 2 Nordeste 9 Nordeste 0 1009 0.6 57
2019-02-14 23:00:00 11.2 6 Este 10 Nordeste 0 1008.7 0.6 66
2019-02-14 22:00:00 12.4 8 Nordeste 11 Nordeste 0 1008.5 0.6 67
2019-02-14 21:00:00 12.7 2 Este 16 Nordeste 0 1008.4 0.4 68
2019-02-14 20:00:00 14 6 Nordeste 11 Nordeste 0 1008.1 0.4 62
2019-02-14 19:00:00 15.4 6 Este 21 Sudoeste 0 1007.9 0.1 59
2019-02-14 18:00:00 17.6 12 Sudoeste 21 Sudoeste 0 1008 -0.4 51
2019-02-14 17:00:00 20.4 6 Sudoeste 20 Sudoeste 0 1007.7 -1.5 40
2019-02-14 16:00:00 21.1 10 Sudoeste 19 Sur 0 1007.8 -2.4 37
2019-02-14 15:00:00 21.3 8 Sur 17 Sur 0 1008.4 -2.3 38
2019-02-14 14:00:00 19.9 8 Sudoeste 17 Sudoeste 0 1009.2 -1.9 43
2019-02-14 13:00:00 17.9 7 Sudoeste 10 Sudoeste 0 1010.2 -1.2 47
2019-02-14 12:00:00 15.2 5 Sur 9 Oeste 0 1010.7 -0.5 57
2019-02-14 11:00:00 14.5 8 Nordeste 14 Nordeste 0 1011.1 0.1 54
2019-02-14 10:00:00 10.8 0 Calma 13 Este 0 1011.4 0.2 63
2019-02-14 09:00:00 8.4 5 Este 16 Nordeste 0 1011.2 -0.1 67
2019-02-14 08:00:00 8.3 9 Nordeste 18 Nordeste 0 1011 -0.2 68
2019-02-14 07:00:00 8.3 5 Este 16 Nordeste 0 1011.2 -0.4 70
2019-02-14 06:00:00 8.9 13 Nordeste 19 Nordeste 0 1011.3 -0.6 67
2019-02-14 05:00:00 8.6 10 Nordeste 26 Nordeste 0 1011.2 -1.1 69
2019-02-14 04:00:00 8 17 Nordeste 26 Nordeste 0 1011.6 -1.1 73
2019-02-14 03:00:00 8.3 16 Nordeste 26 Nordeste 0 1011.9 -1 74
2019-02-14 02:00:00 8.2 18 Nordeste 22 Nordeste 0 1012.3 -0.8 76
2019-02-14 01:00:00 8.6 9 Nordeste 17 Nordeste 0 1012.7 -0.4 76
2019-02-14 00:00:00 9.3 13 Nordeste 21 Nordeste 0 1012.9 -0.3 74
2019-02-13 23:00:00 9.5 11 Este 17 Este 0 1013.1 -0.1 73
2019-02-13 22:00:00 10.3 12 Nordeste 16 Nordeste 0 1013.1 0.3 70
2019-02-13 21:00:00 11.7 4 Nordeste 7 Este 0 1013.2 0.5 59
2019-02-13 20:00:00 12.5 2 Sur 6 Sur 0 1013.2 0.3 52
2019-02-13 19:00:00 14.7 3 Sur 7 Sudoeste 0 1012.8 -0.3 49
2019-02-13 18:00:00 17 6 Sudoeste 14 Sudoeste 0 1012.7 -0.6 42
2019-02-13 17:00:00 17.5 8 Sudoeste 18 Sudoeste 0 1012.9 -1.1 41
2019-02-13 16:00:00 17.5 8 Sudoeste 17 Sudoeste 0 1013.1 -1.8 42
2019-02-13 15:00:00 17.7 8 Oeste 16 Sudoeste 0 1013.3 -1.7 41
2019-02-13 14:00:00 18 10 Sur 16 Sudoeste 0 1014 -1 40
2019-02-13 13:00:00 15.4 4 Sudoeste 6 Oeste 0 1014.9 0 55
2019-02-13 12:00:00 13.3 4 Norte 7 Nordeste 0 1015 0.3 60
2019-02-13 11:00:00 10 3 Sudoeste 17 Este 0 1015 0.5 68
2019-02-13 10:00:00 8 7 Este 25 Nordeste 0 1014.9 0.3 70
2019-02-13 09:00:00 6.3 14 Nordeste 22 Nordeste 0 1014.7 0.4 74
2019-02-13 08:00:00 6 13 Nordeste 21 Nordeste 0 1014.5 0 77
2019-02-13 07:00:00 6.5 9 Este 18 Nordeste 0 1014.6 -0.2 78
2019-02-13 06:00:00 6.1 13 Este 21 Nordeste 0 1014.3 -0.5 81
2019-02-13 05:00:00 6.3 10 Nordeste 19 Nordeste 0 1014.5 -0.6 81
2019-02-13 04:00:00 6.8 13 Este 24 Este 0 1014.8 -0.2 80
2019-02-13 03:00:00 7.7 14 Nordeste 23 Nordeste 0 1014.8 -0.4 78
2019-02-13 02:00:00 8 12 Nordeste 19 Nordeste 0 1015.1 -0.2 78
2019-02-13 01:00:00 7.9 11 Nordeste 22 Este 0 1015 -0.3 81
2019-02-13 00:00:00 8.3 14 Nordeste 18 Nordeste 0 1015.2 -0.1 81
2019-02-12 23:00:00 9 12 Nordeste 18 Nordeste 0 1015.3 0 81
2019-02-12 22:00:00 9.5 9 Nordeste 14 Nordeste 0 1015.3 0.3 80
2019-02-12 21:00:00 10.3 8 Este 12 Este 0 1015.3 0.4 77
2019-02-12 20:00:00 11.3 4 Sudeste 6 Sudeste 0 1015.3 0.6 65
2019-02-12 19:00:00 13.6 3 Sur 13 Sudoeste 0 1015 0.3 57
2019-02-12 18:00:00 15.7 7 Sudoeste 15 Oeste 0 1014.9 -0.1 53
2019-02-12 17:00:00 16.1 10 Sudoeste 17 Oeste 0 1014.7 -0.8 54
2019-02-12 16:00:00 15.8 8 Sudoeste 15 Sudoeste 0 1014.7 -1.6 53
2019-02-12 15:00:00 16.6 6 Sudoeste 12 Sudoeste 0 1015 -1.6 48
2019-02-12 14:00:00 15.4 4 Sur 11 Oeste 0 1015.5 -1.1 51
2019-02-12 13:00:00 13.5 5 Sudoeste 7 Sur 0 1016.3 -0.4 64
2019-02-12 12:00:00 11.2 2 Sudoeste 5 Oeste 0 1016.6 0.1 68
2019-02-12 11:00:00 9 2 Oeste 18 Nordeste 0 1016.6 0.3 71
2019-02-12 10:00:00 7.1 10 Este 15 Este 0 1016.7 0.5 72
2019-02-12 09:00:00 5.5 4 Sudeste 12 Nordeste 0 1016.5 0.2 77
2019-02-12 08:00:00 5.7 8 Este 15 Este 0 1016.3 -0.3 77
2019-02-12 07:00:00 6.2 10 Este 17 Este 0 1016.2 -0.5 76
2019-02-12 06:00:00 6.1 5 Este 18 Nordeste 0 1016.3 -0.5 75
2019-02-12 05:00:00 6.1 9 Nordeste 17 Nordeste 0 1016.6 0 75
2019-02-12 04:00:00 6 7 Este 17 Nordeste 0 1016.7 0.4 75
2019-02-12 03:00:00 6 2 Este 9 Nordeste 0 1016.8 0.6 78
2019-02-12 02:00:00 6.9 2 Norte 7 Nordeste 0 1016.6 0.5 74
2019-02-12 01:00:00 6.9 2 Sudeste 14 Este 0 1016.3 0.2 76
2019-02-12 00:00:00 8.4 11 Este 17 Nordeste 0 1016.2 0.2 69
2019-02-11 23:00:00 9.1 12 Nordeste 15 Nordeste 0 1016.1 0.2 67
2019-02-11 22:00:00 9.6 7 Este 18 Nordeste 0 1016.1 0.7 67
2019-02-11 21:00:00 10.4 7 Nordeste 14 Nordeste 0 1016 0.9 65
2019-02-11 20:00:00 11.3 6 Nordeste 10 Este 0 1015.9 0.8 65
2019-02-11 19:00:00 13.6 2 Norte 8 Oeste 0 1015.4 0.3 59
2019-02-11 18:00:00 15.3 8 Oeste 23 Oeste 0 1015.1 -0.3 51
2019-02-11 17:00:00 16 16 Oeste 24 Oeste 0 1015.1 -1.2 51
2019-02-11 16:00:00 15.7 7 Noroeste 18 Norte 0 1015.1 -2 53
2019-02-11 15:00:00 14.8 7 Oeste 15 Noroeste 0 1015.4 -2 53
2019-02-11 14:00:00 13.3 10 Noroeste 17 Oeste 0 1016.3 -1 61
2019-02-11 13:00:00 12.4 2 Sudoeste 7 Noroeste 0 1017.1 0.5 64
2019-02-11 12:00:00 10.1 4 Sudoeste 7 Sudoeste 0 1017.4 1 70
2019-02-11 11:00:00 7.7 2 Sudoeste 9 Este 0 1017.3 1.4 81
2019-02-11 10:00:00 5.6 3 Norte 11 Este 0 1016.6 0.9 85
2019-02-11 09:00:00 4.5 7 Este 13 Este 0 1016.4 0.9 87
2019-02-11 08:00:00 4.3 8 Este 19 Este 0 1015.9 0.5 88
2019-02-11 07:00:00 5.1 12 Este 20 Este 0 1015.7 0.4 86
2019-02-11 06:00:00 4.8 13 Este 19 Este 0 1015.5 0.2 89
2019-02-11 05:00:00 5.3 8 Nordeste 17 Este 0 1015.4 0.1 87
2019-02-11 04:00:00 5.4 10 Nordeste 18 Este 0 1015.3 0.3 86
2019-02-11 03:00:00 5.7 10 Nordeste 16 Nordeste 0 1015.3 0.5 84
2019-02-11 02:00:00 5.6 9 Nordeste 14 Nordeste 0 1015.3 1 86
2019-02-11 01:00:00 6.1 8 Este 13 Este 0 1015 1.3 83
2019-02-11 00:00:00 6.3 9 Este 14 Este 0 1014.8 1.8 82
2019-02-10 23:00:00 7 6 Nordeste 10 Este 0 1014.3 2 82
2019-02-10 22:00:00 7.7 5 Nordeste 9 Nordeste 0 1013.7 2 78
2019-02-10 21:00:00 8 3 Este 9 Norte 0 1013 2.1 78
2019-02-10 20:00:00 9.3 5 Noroeste 17 Noroeste 0 1012.3 2.1 71
2019-02-10 19:00:00 10.6 9 Oeste 19 Oeste 0 1011.7 2.2 67
2019-02-10 18:00:00 12.5 16 Oeste 24 Noroeste 0 1010.9 2 64
2019-02-10 17:00:00 13.4 13 Noroeste 29 Noroeste 0 1010.2 1.5 57
2019-02-10 16:00:00 12.7 12 Oeste 23 Noroeste 0 1009.5 1.1 63
2019-02-10 15:00:00 12.4 13 Noroeste 24 Noroeste 0 1008.9 0.9 65
2019-02-10 14:00:00 12.7 9 Noroeste 19 Noroeste 0 1008.7 1.5 69
2019-02-10 13:00:00 13.2 11 Oeste 18 Oeste 0 1008.4 2 69
2019-02-10 12:00:00 12.4 3 Oeste 8 Oeste 0 1008 3 73
2019-02-10 11:00:00 11.7 4 Nordeste 8 Este 0 1007.2 3.8 82
2019-02-10 10:00:00 9.8 5 Noroeste 20 Oeste 0 1006.4 5.3 90
2019-02-10 09:00:00 10.1 16 Noroeste 29 Oeste 0.2 1005 4.3 92
2019-02-10 08:00:00 11.5 8 Oeste 47 Sur 3.8 1003.4 2.4 95
2019-02-10 07:00:00 13 24 Sur 60 Sur 0.4 1001.1 -0.5 95
2019-02-10 06:00:00 12.6 21 Sur 54 Sur 3.4 1000.7 -1.2 96
2019-02-10 05:00:00 12.7 28 Sur 57 Sur 1.8 1001 -1.3 93
2019-02-10 04:00:00 12.6 21 Sur 67 Sur 1.8 1001.6 -0.5 93
2019-02-10 03:00:00 13.4 28 Sur 58 Sur 0 1001.9 -0.9 87
2019-02-10 02:00:00 13.3 29 Sur 62 Sur 0 1002.3 -0.6 87
2019-02-10 01:00:00 13.1 29 Sur 63 Sur 0 1002.1 -0.9 88
2019-02-10 00:00:00 12.8 24 Sur 57 Sur 0 1002.8 -0.6 87
2019-02-09 23:00:00 12.3 25 Sur 54 Sur 0 1002.9 -0.7 91
2019-02-09 22:00:00 11.9 22 Sur 40 Sur 0 1003 -0.5 93
2019-02-09 21:00:00 11.4 24 Sur 44 Sudeste 0.2 1003.4 -0.4 93
2019-02-09 20:00:00 11.1 19 Sur 40 Sur 0.2 1003.6 -0.8 95
2019-02-09 19:00:00 11.2 18 Sur 40 Sur 0 1003.5 -1.5 93
2019-02-09 18:00:00 11.6 15 Sur 38 Sur 0 1003.8 -1.6 88
2019-02-09 17:00:00 11.9 14 Sur 35 Sur 0 1004.4 -1.5 87
2019-02-09 16:00:00 12.2 16 Sur 33 Sur 0 1005 -1.4 85
2019-02-09 15:00:00 12.3 16 Sur 37 Sur 0 1005.4 -1.2 81
2019-02-09 14:00:00 12.5 19 Sur 44 Sur 0.2 1005.9 -0.7 84
2019-02-09 13:00:00 11.4 15 Sur 35 Sur 0 1006.4 -0.3 95
2019-02-09 12:00:00 11.8 11 Sur 25 Sudeste 0 1006.6 0.5 87
2019-02-09 11:00:00 11.6 12 Sur 29 Sur 0 1006.6 0.5 87
2019-02-09 10:00:00 11.2 13 Sur 29 Sudeste 0 1006.7 0.2 86
2019-02-09 09:00:00 11.5 15 Sur 33 Sur 0 1006.1 -0.2 80
2019-02-09 08:00:00 11.5 12 Sur 30 Sur 0 1006.1 -0.6 83
2019-02-09 07:00:00 11.4 11 Sur 26 Sudeste 0 1006.5 -0.4 86
2019-02-09 06:00:00 11.3 8 Sur 22 Sur 0 1006.3 -0.9 86
2019-02-09 05:00:00 11.3 12 Sur 24 Sur 0 1006.7 -0.7 88
2019-02-09 04:00:00 11.4 12 Sur 26 Sur 0 1006.9 -0.7 87
2019-02-09 03:00:00 11.3 11 Sur 27 Sur 0 1007.2 -0.4 89
2019-02-09 02:00:00 11.4 8 Sur 20 Sur 0 1007.4 0.1 88
2019-02-09 01:00:00 11.6 10 Sur 24 Sudeste 0 1007.6 0.4 88
2019-02-09 00:00:00 11.6 11 Sur 22 Sur 0 1007.6 0.6 88
2019-02-08 23:00:00 11.4 11 Sur 20 Sur 0 1007.3 0.5 89
2019-02-08 22:00:00 11.3 7 Sur 24 Sur 0 1007.2 0.5 90
2019-02-08 21:00:00 11.3 14 Sur 28 Sur 0 1007 0.4 89
2019-02-08 20:00:00 11.3 14 Sur 30 Sur 0.2 1006.8 0.3 89
2019-02-08 19:00:00 11.2 13 Sur 32 Sur 0 1006.7 0.1 90
2019-02-08 18:00:00 10.8 10 Sur 33 Sudeste 0 1006.6 -0.2 94
2019-02-08 17:00:00 10.2 15 Sur 31 Sur 0 1006.5 -0.5 96
2019-02-08 16:00:00 10.3 13 Sur 35 Sur 0 1006.6 -0.7 92
2019-02-08 15:00:00 11.4 15 Sudoeste 32 Sudoeste 0 1006.8 -0.8 81
2019-02-08 14:00:00 12 14 Sur 30 Sur 0 1007 -0.9 77
2019-02-08 13:00:00 11.7 11 Sur 29 Sur 0 1007.3 -0.8 78
2019-02-08 12:00:00 11 12 Sur 25 Sur 0 1007.6 -0.4 80
2019-02-08 11:00:00 9.6 6 Sudoeste 13 Sur 0 1007.9 0 89
2019-02-08 10:00:00 8.3 3 Norte 8 Nordeste 0 1008.1 0 90
2019-02-08 09:00:00 7.4 4 Norte 11 Norte 0 1008 -0.2 93
2019-02-08 08:00:00 6.6 4 Norte 13 Norte 0 1007.9 -0.7 95
2019-02-08 07:00:00 6.2 8 Nordeste 11 Nordeste 0 1008.1 -1.2 96
2019-02-08 06:00:00 5.3 3 Sur 6 Sudeste 0 1008.2 -1.2 96
2019-02-08 05:00:00 4.9 0 Calma 10 Nordeste 0 1008.6 -1.2 94
2019-02-08 04:00:00 4.5 6 Nordeste 9 Nordeste 0 1009.3 -0.6 95
2019-02-08 03:00:00 4.8 6 Nordeste 16 Nordeste 0 1009.4 -1.2 95
2019-02-08 02:00:00 4.8 10 Nordeste 14 Nordeste 0 1009.8 -0.9 93
2019-02-08 01:00:00 5.5 8 Este 16 Este 0 1009.9 -0.8 91
2019-02-08 00:00:00 5.9 5 Este 14 Nordeste 0 1010.6 0 92
2019-02-07 23:00:00 6.7 12 Nordeste 15 Nordeste 0 1010.7 0 90
2019-02-07 22:00:00 6.8 4 Este 7 Este 0 1010.7 -0.1 89
2019-02-07 21:00:00 8.1 5 Este 7 Este 0 1010.6 -0.3 85
2019-02-07 20:00:00 8.8 5 Sudeste 8 Sudoeste 0 1010.7 -0.1 82
2019-02-07 19:00:00 10.3 4 Sur 17 Sudoeste 0 1010.8 0 74
2019-02-07 18:00:00 12 8 Sudoeste 20 Sudoeste 0 1010.9 -0.3 67
2019-02-07 17:00:00 12.8 11 Sudoeste 21 Sudoeste 0 1010.8 -1.2 66
2019-02-07 16:00:00 12.6 13 Sudoeste 22 Sudoeste 0 1010.8 -1.4 64
2019-02-07 15:00:00 13.3 9 Sudoeste 19 Oeste 0 1011.2 -1.3 62
2019-02-07 14:00:00 12.2 9 Sudoeste 15 Sudoeste 0 1012 -0.3 67
2019-02-07 13:00:00 12.2 5 Oeste 16 Noroeste 0 1012.2 0.2 80
2019-02-07 12:00:00 11.8 6 Sudoeste 15 Oeste 0 1012.5 1 84
2019-02-07 11:00:00 10.5 3 Sudeste 5 Sudeste 0 1012.3 1.4 98
2019-02-07 10:00:00 9.9 2 Sudoeste 6 Este 0 1012 1 99
2019-02-07 09:00:00 9.3 4 Sudeste 10 Sudeste 0.8 1011.5 0.8 98
2019-02-07 08:00:00 9.1 5 Este 12 Sudeste 1.2 1010.9 0.1 99
2019-02-07 07:00:00 9 3 Noroeste 7 Noroeste 0.8 1011 -0.2 99
2019-02-07 06:00:00 9 0 Calma 7 Sudeste 0 1010.7 -0.4 98
2019-02-07 05:00:00 8.9 3 Norte 4 Noroeste 0 1010.8 -0.4 98
2019-02-07 04:00:00 9.5 4 Sudeste 6 Sudeste 0 1011.2 0.2 98
2019-02-07 03:00:00 9.4 5 Sudeste 11 Sudeste 0.2 1011.1 0.5 98
2019-02-07 02:00:00 9.7 6 Sur 11 Sur 0.8 1011.2 0.6 99
2019-02-07 01:00:00 9.7 9 Sur 17 Sur 2.2 1011 0.3 99
2019-02-07 00:00:00 9.9 4 Sur 10 Sudeste 1.4 1010.6 0 97
2019-02-06 23:00:00 10 3 Sudoeste 14 Sur 1 1010.6 0.1 96
2019-02-06 22:00:00 10.2 5 Sur 15 Sur 0 1010.7 0.4 93
2019-02-06 21:00:00 10.6 9 Sur 24 Sur 0 1010.6 0.4 89
2019-02-06 20:00:00 11.4 8 Sur 21 Sur 0 1010.5 0.5 82
2019-02-06 19:00:00 11.8 10 Sur 23 Sur 0 1010.3 -0.1 78
2019-02-06 18:00:00 12.5 10 Sur 25 Sudoeste 0 1010.2 -0.4 74
2019-02-06 17:00:00 13 12 Sudoeste 28 Sudoeste 0 1010 -1 73
2019-02-06 16:00:00 13.2 14 Sudoeste 29 Sudoeste 0 1010.4 -1.5 74
2019-02-06 15:00:00 13.1 11 Sudoeste 22 Sur 0 1010.6 -1.7 76
2019-02-06 14:00:00 13.5 7 Sur 22 Sur 0 1011 -1.3 74
2019-02-06 13:00:00 12.9 9 Sur 19 Sur 0 1011.9 -0.5 79
2019-02-06 12:00:00 10.8 5 Sur 9 Sur 0 1012.3 0.2 88
2019-02-06 11:00:00 8.9 3 Noroeste 9 Nordeste 0 1012.3 0.4 94
2019-02-06 10:00:00 6.9 3 Sudeste 12 Nordeste 0 1012.4 0.3 98
2019-02-06 09:00:00 6.6 2 Noroeste 5 Norte 0 1012.1 0 98
2019-02-06 08:00:00 6.5 0 Calma 10 Nordeste 0 1011.9 -0.3 98
2019-02-06 07:00:00 6.6 4 Este 13 Nordeste 0 1012.1 -0.7 97
2019-02-06 06:00:00 7 3 Sudeste 9 Este 0 1012.1 -1.1 97
2019-02-06 05:00:00 7.3 4 Este 8 Nordeste 0 1012.2 -1.6 96
2019-02-06 04:00:00 8 3 Nordeste 5 Nordeste 0 1012.8 -1.3 98
2019-02-06 03:00:00 8.2 3 Sudoeste 6 Este 0 1013.2 -1.1 95
2019-02-06 02:00:00 8.9 0 Calma 2 Sudoeste 0 1013.8 -0.8 96
2019-02-06 01:00:00 9.2 0 Calma 7 Este 0 1014.1 -0.7 95
2019-02-06 00:00:00 9.9 5 Este 7 Este 0 1014.3 -0.4 91
2019-02-05 23:00:00 10 0 Calma 7 Este 0 1014.6 -0.1 93
2019-02-05 22:00:00 10 2 Sur 7 Este 0 1014.8 0.5 91
2019-02-05 21:00:00 10.6 2 Este 6 Este 0 1014.7 0.6 91
2019-02-05 20:00:00 10.9 3 Sudeste 8 Sur 0 1014.7 0.5 88
2019-02-05 19:00:00 12.1 3 Sur 16 Sudoeste 0 1014.3 -0.1 83
2019-02-05 18:00:00 14.3 8 Sudoeste 18 Sudoeste 0 1014.1 -0.8 69
2019-02-05 17:00:00 14.9 9 Sudoeste 16 Sudoeste 0 1014.2 -1.2 66
2019-02-05 16:00:00 14.1 8 Sudoeste 13 Sudoeste 0 1014.4 -1.6 73
2019-02-05 15:00:00 14.2 5 Sudoeste 13 Sudoeste 0 1014.9 -1.3 73
2019-02-05 14:00:00 14.3 5 Sudoeste 14 Sudoeste 0 1015.4 -0.7 76
2019-02-05 13:00:00 13.4 6 Oeste 11 Oeste 0 1016 0.2 75
2019-02-05 12:00:00 12 4 Norte 7 Norte 0 1016.2 0.8 88
2019-02-05 11:00:00 10.8 0 Calma 3 Norte 0 1016.1 1.1 92
2019-02-05 10:00:00 9.6 0 Calma 5 Sudeste 0 1015.8 1 96
2019-02-05 09:00:00 9.2 3 Sudeste 13 Este 6.2 1015.4 0.5 96
2019-02-05 08:00:00 9.2 3 Nordeste 6 Este 0 1015 0.3 96
2019-02-05 07:00:00 9.2 4 Este 8 Nordeste 0 1014.8 -0.3 96
2019-02-05 06:00:00 9.2 4 Nordeste 8 Nordeste 0 1014.9 -0.4 96
2019-02-05 05:00:00 9.1 4 Norte 5 Norte 0 1014.7 -0.9 97
2019-02-05 04:00:00 9 0 Calma 9 Nordeste 0 1015.1 -0.7 97
2019-02-05 03:00:00 9.1 6 Nordeste 10 Nordeste 0 1015.3 -0.6 97
2019-02-05 02:00:00 9.2 2 Sudoeste 5 Este 0 1015.6 -0.1 95
2019-02-05 01:00:00 9.2 5 Nordeste 6 Nordeste 0 1015.8 0 95
2019-02-05 00:00:00 9.3 2 Nordeste 4 Nordeste 0 1015.9 0 93
2019-02-04 23:00:00 9.5 3 Sudeste 4 Sudeste 0 1015.7 0.1 90
2019-02-04 22:00:00 9.7 0 Calma 9 Este 0 1015.8 0.5 89
2019-02-04 21:00:00 9.6 5 Norte 7 Norte 0 1015.9 0.6 86
2019-02-04 20:00:00 9.7 4 Norte 6 Norte 0 1015.6 0.5 81
2019-02-04 19:00:00 9.8 3 Norte 5 Este 0 1015.3 0.3 80
2019-02-04 18:00:00 9.9 2 Noroeste 3 Noroeste 0 1015.3 -0.2 76
2019-02-04 17:00:00 10.1 0 Calma 5 Sur 0 1015.1 -1 74
2019-02-04 16:00:00 9.9 0 Calma 5 Sudoeste 0 1015 -1.4 72
2019-02-04 15:00:00 9.7 0 Calma 4 Sur 0 1015.5 -0.8 73
2019-02-04 14:00:00 9.1 2 Noroeste 8 Norte 0 1016.1 0 75
2019-02-04 13:00:00 8.3 3 Este 6 Noroeste 0 1016.4 0.4 77
2019-02-04 12:00:00 7.6 2 Noroeste 6 Noroeste 0 1016.3 0.7 78
2019-02-04 11:00:00 6.3 0 Calma 4 Noroeste 0 1016.1 0.6 80
2019-02-04 10:00:00 5 4 Norte 10 Nordeste 0 1016 0.4 87
2019-02-04 09:00:00 4.4 4 Nordeste 10 Norte 0 1015.6 0 83
2019-02-04 08:00:00 4.4 5 Nordeste 8 Nordeste 0 1015.5 -0.3 82
2019-02-04 07:00:00 4.3 0 Calma 7 Este 0 1015.6 -0.6 82
2019-02-04 06:00:00 4 8 Nordeste 13 Nordeste 0 1015.6 -0.7 84
2019-02-04 05:00:00 3.9 7 Nordeste 12 Nordeste 0 1015.8 -0.5 84
2019-02-04 04:00:00 3.1 3 Sudeste 15 Nordeste 0 1016.2 0.1 90
2019-02-04 03:00:00 3 3 Nordeste 13 Nordeste 0 1016.3 0.1 91
2019-02-04 02:00:00 4.1 4 Nordeste 9 Nordeste 0 1016.3 0.3 87
2019-02-04 01:00:00 4.5 4 Nordeste 14 Nordeste 0 1016.1 0.2 86
2019-02-04 00:00:00 5.2 10 Nordeste 13 Nordeste 0 1016.2 0.3 87
2019-02-03 23:00:00 5.7 8 Nordeste 14 Nordeste 0 1016 0.5 84
2019-02-03 22:00:00 6.2 3 Oeste 10 Este 0 1015.9 0.8 83
2019-02-03 21:00:00 7 6 Este 7 Este 0 1015.9 1 79
2019-02-03 20:00:00 7.6 2 Sudeste 7 Sudoeste 0 1015.5 0.7 74
2019-02-03 19:00:00 9.4 4 Sudoeste 8 Oeste 0 1015.1 0.2 66
2019-02-03 18:00:00 11.4 6 Sudoeste 14 Sudoeste 0 1014.9 -0.3 59
2019-02-03 17:00:00 11.8 7 Oeste 16 Oeste 0 1014.8 -1.2 53
2019-02-03 16:00:00 10.9 6 Sudoeste 11 Oeste 0 1014.9 -1.8 55
2019-02-03 15:00:00 11.2 4 Oeste 8 Sur 0 1015.2 -1.6 54
2019-02-03 14:00:00 10.7 2 Sur 9 Oeste 0 1016 -0.4 57
2019-02-03 13:00:00 8.5 5 Sudoeste 9 Oeste 0 1016.7 0.7 73
2019-02-03 12:00:00 6.4 3 Oeste 5 Sudoeste 0 1016.8 1.2 83
2019-02-03 11:00:00 3.7 3 Sudoeste 7 Este 0 1016.4 1.4 92
2019-02-03 10:00:00 2.4 5 Este 10 Nordeste 0 1016 1.7 92
2019-02-03 09:00:00 1.8 5 Nordeste 13 Este 0 1015.6 1.7 92
2019-02-03 08:00:00 1.4 8 Este 16 Este 0 1015 1.2 95
2019-02-03 07:00:00 1.9 10 Este 15 Nordeste 0 1014.3 0.8 92
2019-02-03 06:00:00 2 10 Nordeste 17 Este 0 1013.9 0.7 93
2019-02-03 05:00:00 1.5 3 Este 14 Nordeste 0 1013.8 0.7 94
2019-02-03 04:00:00 2.6 9 Nordeste 18 Nordeste 0 1013.5 0.7 91
2019-02-03 03:00:00 2.8 11 Nordeste 16 Nordeste 0 1013.2 1.3 93
2019-02-03 02:00:00 2.6 5 Nordeste 8 Nordeste 0 1013.1 1.5 93
2019-02-03 01:00:00 3.2 4 Este 11 Este 0 1012.8 1.9 92
2019-02-03 00:00:00 4.2 9 Nordeste 15 Nordeste 0 1011.9 1.6 90
2019-02-02 23:00:00 4.5 4 Nordeste 9 Nordeste 0 1011.6 1.6 89
2019-02-02 22:00:00 5 5 Nordeste 17 Nordeste 0 1010.9 1.7 88
2019-02-02 21:00:00 5.5 8 Nordeste 12 Nordeste 0 1010.3 1.7 88
2019-02-02 20:00:00 6.1 0 Calma 15 Este 0 1010 2.2 82
2019-02-02 19:00:00 7.3 6 Este 18 Norte 0 1009.2 2.5 77
2019-02-02 18:00:00 8.3 11 Norte 33 Norte 0 1008.6 2 71
2019-02-02 17:00:00 9.8 6 Noroeste 18 Noroeste 0 1007.8 0.8 67
2019-02-02 16:00:00 8.9 3 Noroeste 25 Noroeste 0.8 1006.7 0 74
2019-02-02 15:00:00 10.3 5 Noroeste 19 Noroeste 0 1006.6 0.1 62
2019-02-02 14:00:00 9.6 4 Norte 20 Noroeste 0 1007 1.6 67
2019-02-02 13:00:00 9.1 10 Noroeste 15 Noroeste 0 1006.7 2.4 67
2019-02-02 12:00:00 8 3 Sur 8 Noroeste 0 1006.5 3.5 79
2019-02-02 11:00:00 5.7 4 Sudoeste 10 Este 0 1005.4 3.8 86
2019-02-02 10:00:00 3.4 4 Este 10 Este 0 1004.3 3.7 91
2019-02-02 09:00:00 2.6 4 Norte 12 Este 0 1003 3.2 92
2019-02-02 08:00:00 3.4 4 Norte 11 Oeste 0 1001.6 2.8 90
2019-02-02 07:00:00 4.1 7 Noroeste 26 Noroeste 0 1000.6 2.6 89
2019-02-02 06:00:00 4.2 11 Norte 19 Norte 0 999.8 2.8 90
2019-02-02 05:00:00 4 4 Este 19 Norte 0.2 998.8 3.2 91
2019-02-02 04:00:00 4.4 11 Noroeste 38 Noroeste 0 998 3.9 89
2019-02-02 03:00:00 4.9 15 Noroeste 48 Norte 0.2 997 4 87
2019-02-02 02:00:00 5.6 19 Noroeste 46 Norte 0.2 995.6 3.7 84
2019-02-02 01:00:00 6.3 18 Noroeste 35 Noroeste 0 994.1 3.7 73
2019-02-02 00:00:00 6.1 13 Noroeste 22 Noroeste 0 993 4.1 82
2019-02-01 23:00:00 6.1 8 Noroeste 27 Noroeste 0 991.9 4.6 85
2019-02-01 22:00:00 6.8 18 Noroeste 38 Noroeste 0.8 990.4 4.7 85
2019-02-01 21:00:00 7.7 17 Noroeste 33 Noroeste 0 988.9 5 78
2019-02-01 20:00:00 8.5 11 Noroeste 30 Oeste 0 987.3 5.1 78
2019-02-01 19:00:00 8.9 11 Noroeste 27 Noroeste 0 985.7 4.8 79
2019-02-01 18:00:00 8.8 15 Noroeste 57 Oeste 0.4 983.9 4.5 83
2019-02-01 17:00:00 8.9 17 Oeste 37 Noroeste 0 982.2 3.9 80
2019-02-01 16:00:00 7 12 Noroeste 58 Oeste 2.8 980.9 2.3 92
2019-02-01 15:00:00 6.9 16 Oeste 57 Oeste 3.6 979.4 2.2 90
2019-02-01 14:00:00 8.2 21 Oeste 40 Oeste 0.4 978.3 2.4 83
2019-02-01 13:00:00 7.2 20 Oeste 59 Noroeste 0.4 978.6 4.2 81
2019-02-01 12:00:00 8.1 22 Oeste 66 Sudoeste 0 977.2 3.5 74
2019-02-01 11:00:00 8.3 32 Oeste 68 Sudoeste 0 975.9 1.4 74
2019-02-01 10:00:00 7.7 25 Sudoeste 59 Oeste 0.6 974.4 0.6 81
2019-02-01 09:00:00 9 26 Sudoeste 58 Sudoeste 0 973.7 -1.6 78
2019-02-01 08:00:00 9 26 Sudoeste 71 Oeste 1.2 974.5 -2.5 75
2019-02-01 07:00:00 7.7 21 Sur 63 Sur 2.2 973.8 -3.6 89
2019-02-01 06:00:00 8.6 18 Sudoeste 44 Noroeste 0.2 975.3 -2.5 87
2019-02-01 05:00:00 8.8 20 Oeste 62 Oeste 0.2 977 -2.2 79
2019-02-01 04:00:00 8.9 36 Sudoeste 82 Sudoeste 1.8 977.4 -2.1 84
2019-02-01 03:00:00 8.8 22 Sudoeste 69 Sudoeste 0.6 977.8 -2.9 88
2019-02-01 02:00:00 8.7 25 Sudoeste 59 Sudoeste 1 979.2 -2.1 85
2019-02-01 01:00:00 8.8 20 Sur 36 Sur 0.4 979.5 -2.3 89
2019-02-01 00:00:00 8 8 Sur 58 Sudoeste 1.2 980.7 -1.7 96
2019-01-31 23:00:00 8.2 7 Sur 43 Sudoeste 1.4 981.3 -1.4 93
2019-01-31 22:00:00 9.7 13 Sudoeste 29 Sudoeste 0 981.8 -0.9 84
2019-01-31 21:00:00 9.9 16 Sudoeste 44 Sudoeste 0.2 982.4 -0.5 89
2019-01-31 20:00:00 10.4 14 Sudoeste 24 Sudoeste 0 982.7 -0.6 88
2019-01-31 19:00:00 10.8 11 Sudoeste 32 Sudoeste 0 982.7 -0.7 90
2019-01-31 18:00:00 11.1 15 Sudoeste 32 Sudoeste 0 982.9 -0.4 91
2019-01-31 17:00:00 11.3 21 Sudoeste 35 Sudoeste 0 983.3 -0.2 96
2019-01-31 16:00:00 11.2 17 Sudoeste 35 Sudoeste 1.4 983.4 -1.2 98
2019-01-31 15:00:00 12.3 21 Sudoeste 59 Sur 3.8 983.3 -2 99
2019-01-31 14:00:00 13 27 Sur 61 Sudoeste 1.2 983.5 -1.9 100
2019-01-31 13:00:00 12.8 30 Sudoeste 63 Sudoeste 0.8 984.6 -1.2 100
2019-01-31 12:00:00 12.7 32 Sudoeste 62 Sudoeste 1.8 985.3 -0.5 100
2019-01-31 11:00:00 12.5 29 Sudoeste 52 Sudoeste 2 985.4 -0.8 100
2019-01-31 10:00:00 12.5 27 Sudoeste 62 Sudoeste 2.8 985.8 -0.6 100
2019-01-31 09:00:00 12.5 22 Sudoeste 54 Sudoeste 3.8 985.8 -0.8 100
2019-01-31 08:00:00 12.6 24 Sudoeste 53 Sudoeste 1 986.2 -0.3 100
2019-01-31 07:00:00 12.4 28 Sudoeste 54 Sudoeste 1.6 986.4 -0.8 100
2019-01-31 06:00:00 12.5 29 Sudoeste 57 Sudoeste 3.4 986.6 -0.8 100
2019-01-31 05:00:00 12.3 30 Sudoeste 60 Sudoeste 4 986.5 -1.5 100
2019-01-31 04:00:00 12.2 22 Sudoeste 52 Sudoeste 6 987.2 -1.4 100
2019-01-31 03:00:00 12.2 27 Sudoeste 53 Sudoeste 4.8 987.4 -1.5 100
2019-01-31 02:00:00 12.2 28 Sudoeste 51 Sudoeste 6 988 -1.2 100
2019-01-31 01:00:00 12.3 26 Sudoeste 52 Sudoeste 5.6 988.6 -1 100
2019-01-31 00:00:00 12.4 27 Sudoeste 47 Sudoeste 5.6 988.9 -0.6 100
2019-01-30 23:00:00 12.4 24 Sudoeste 44 Sudoeste 3 989.2 -0.6 100
2019-01-30 22:00:00 12.5 24 Sudoeste 47 Sudoeste 4.2 989.6 -0.7 100
2019-01-30 21:00:00 12.5 26 Sudoeste 50 Sudoeste 6.4 989.5 -1.5 100
2019-01-30 20:00:00 12.5 25 Sudoeste 46 Sudoeste 6.6 989.8 -1.1 100
2019-01-30 19:00:00 12.4 22 Sudoeste 45 Sudoeste 11.8 990.3 -1.4 99
2019-01-30 18:00:00 12.2 17 Sudoeste 51 Sudoeste 0 991 -2.5 99
2019-01-30 17:00:00 10.4 11 Sudoeste 28 Sur 0 990.9 -4.2 100
2019-01-30 16:00:00 9.8 12 Sur 28 Sudeste 0 991.7 -5.2 97
2019-01-30 15:00:00 9.6 11 Sur 27 Sudeste 0 993.5 -4.4 95
2019-01-30 14:00:00 8.7 6 Sur 20 Sur 0 995.1 -3.8 97
2019-01-30 13:00:00 7.9 6 Sur 21 Sudeste 0 996.9 -2.5 97
2019-01-30 12:00:00 7.5 11 Sudeste 23 Sudeste 0 997.9 -1.7 97
2019-01-30 11:00:00 6.4 6 Sudeste 20 Sudeste 0 998.9 -1.3 98
2019-01-30 10:00:00 5.8 2 Norte 7 Norte 0 999.4 -1.6 96
2019-01-30 09:00:00 5.6 3 Este 8 Nordeste 0 999.6 -1.9 95
2019-01-30 08:00:00 5.4 5 Norte 13 Nordeste 0 1000.2 -1.8 96
2019-01-30 07:00:00 5.4 6 Nordeste 10 Nordeste 0 1001 -1.3 94
2019-01-30 06:00:00 5.2 5 Nordeste 13 Nordeste 0 1001.5 -1.3 92
2019-01-30 05:00:00 5.3 8 Nordeste 11 Nordeste 0 1002 -1.1 92
2019-01-30 04:00:00 5.8 6 Nordeste 10 Nordeste 0 1002.3 -1.2 90
2019-01-30 03:00:00 6.1 2 Norte 10 Este 0 1002.8 -0.7 91
2019-01-30 02:00:00 6.8 5 Este 7 Este 0 1003.1 -1.2 88
2019-01-30 01:00:00 6.9 3 Sudeste 9 Este 0 1003.5 -0.9 89
2019-01-30 00:00:00 7.3 7 Este 12 Este 0 1003.5 -0.9 86
2019-01-29 23:00:00 7.7 5 Nordeste 9 Nordeste 0 1004.3 0.3 87
2019-01-29 22:00:00 8.3 7 Noroeste 13 Noroeste 0 1004.4 1 81
2019-01-29 21:00:00 8.8 5 Noroeste 16 Noroeste 0 1004.4 1.3 79
2019-01-29 20:00:00 9 4 Noroeste 12 Noroeste 0 1004 1.3 78
2019-01-29 19:00:00 9.1 4 Este 15 Norte 0 1003.4 1.2 78
2019-01-29 18:00:00 10.1 3 Nordeste 21 Norte 0 1003.1 1 74
2019-01-29 17:00:00 10.6 16 Noroeste 28 Noroeste 0 1002.7 0.3 74
2019-01-29 16:00:00 11.7 12 Oeste 33 Noroeste 0 1002.2 0.8 70
2019-01-29 15:00:00 11.7 14 Noroeste 38 Noroeste 0 1002.1 0.7 71
2019-01-29 14:00:00 11.5 18 Noroeste 49 Oeste 0.2 1002.4 0.9 86
2019-01-29 13:00:00 11.5 23 Sudoeste 57 Sudoeste 2.2 1001.4 -1.2 100
2019-01-29 12:00:00 11.2 34 Sudoeste 62 Sudoeste 4 1001.4 -1.6 100
2019-01-29 11:00:00 10.8 23 Sudoeste 46 Sudoeste 1.6 1001.5 -2.3 98
2019-01-29 10:00:00 10.6 19 Sudoeste 46 Sudoeste 0.6 1002.6 -1.1 96
2019-01-29 09:00:00 10.3 11 Sudoeste 29 Sudoeste 0.2 1003 -1.7 96
2019-01-29 08:00:00 10.1 13 Sudoeste 39 Sudoeste 1 1003.8 -1 96
2019-01-29 07:00:00 10.3 16 Sudoeste 35 Sudoeste 0.2 1003.7 -2.8 95
2019-01-29 06:00:00 9.2 7 Sur 21 Sur 2.6 1004.7 -2.3 100
2019-01-29 05:00:00 8.8 6 Sur 19 Sur -- 1004.8 -2.7 97
2019-01-29 04:00:00 8.8 6 Sur 14 Sur 0.4 1006.5 -1.5 96
2019-01-29 03:00:00 8.6 2 Sur 6 Norte 0 1007 -1.5 92
2019-01-29 02:00:00 8.7 2 Sur 5 Oeste 0 1007.5 -0.9 90
2019-01-29 01:00:00 8.8 4 Nordeste 7 Sudeste 0 1008 -0.6 90
2019-01-29 00:00:00 8.8 2 Sudeste 4 Sudeste 0 1008.5 -0.8 90
2019-01-28 23:00:00 9 0 Calma 4 Sudeste 0 1008.4 -1.1 87
2019-01-28 22:00:00 9.2 3 Sudeste 6 Oeste 0 1008.6 -0.6 86
2019-01-28 21:00:00 9.9 3 Oeste 7 Noroeste 0 1009.3 0.1 84
2019-01-28 20:00:00 10.2 3 Noroeste 10 Noroeste 0 1009.5 0.4 84
2019-01-28 19:00:00 10.7 6 Oeste 13 Oeste 0 1009.2 0.2 80
2019-01-28 18:00:00 11.8 9 Noroeste 17 Noroeste 0 1009.2 -0.1 75
2019-01-28 17:00:00 12.3 12 Noroeste 19 Noroeste 0 1009.1 -0.2 72
2019-01-28 16:00:00 13.6 9 Noroeste 29 Noroeste 0 1009 -0.7 68
2019-01-28 15:00:00 12.8 13 Oeste 21 Oeste 0 1009.3 -0.2 76
2019-01-28 14:00:00 12.6 5 Oeste 23 Oeste 0 1009.3 0 82
2019-01-28 13:00:00 12.5 7 Oeste 15 Sudoeste 0 1009.7 0.7 87
2019-01-28 12:00:00 12 5 Sudoeste 9 Sudoeste 0 1009.5 0.4 91
2019-01-28 11:00:00 11.6 3 Sudoeste 12 Sur 0 1009.3 0.5 95
2019-01-28 10:00:00 10.4 3 Sur 15 Noroeste 0 1009 0.2 96
2019-01-28 09:00:00 10.3 6 Oeste 18 Sudoeste 0.4 1009.1 -0.4 97
2019-01-28 08:00:00 10.2 5 Sudoeste 12 Sur 0.2 1008.8 -0.9 99
2019-01-28 07:00:00 9.7 8 Sur 13 Sur 0.2 1008.8 -1.6 99
2019-01-28 06:00:00 8.8 3 Nordeste 7 Sur 0.2 1009.5 -0.7 98
2019-01-28 05:00:00 8.7 2 Sur 9 Nordeste 0 1009.7 -1.1 98
2019-01-28 04:00:00 8.4 7 Norte 12 Norte 0 1010.4 -0.7 96
2019-01-28 03:00:00 7.8 4 Norte 12 Sudeste 0 1010.2 -0.6 96
2019-01-28 02:00:00 7.8 3 Noroeste 8 Noroeste 0 1010.8 -0.3 94
2019-01-28 01:00:00 7.9 4 Norte 12 Sudeste 0 1011.1 0.4 89
2019-01-28 00:00:00 8.4 0 Calma 8 Este 0 1010.8 -0.2 84
2019-01-27 23:00:00 8.3 0 Calma 5 Norte 0 1011.1 0.1 81
2019-01-27 22:00:00 8.2 2 Sudoeste 6 Sudeste 0 1010.7 0.2 83
2019-01-27 21:00:00 8.7 3 Este 5 Nordeste 0 1011 1 78
2019-01-27 20:00:00 8.6 2 Noroeste 9 Oeste 0 1011 1.6 77
2019-01-27 19:00:00 9.6 6 Noroeste 21 Noroeste 0 1010.5 1.6 72
2019-01-27 18:00:00 10.9 12 Oeste 21 Oeste 0 1010 0.6 68
2019-01-27 17:00:00 11.5 10 Oeste 19 Oeste 0 1009.4 -0.2 64
2019-01-27 16:00:00 11.8 13 Oeste 29 Oeste 0 1008.9 -1 62
2019-01-27 15:00:00 11 8 Norte 22 Norte 0 1009.4 -0.5 71
2019-01-27 14:00:00 10.1 10 Norte 20 Noroeste 0 1009.6 0.5 79
2019-01-27 13:00:00 10.9 6 Oeste 13 Noroeste 0 1009.9 1.5 79
2019-01-27 12:00:00 9.3 2 Sudoeste 9 Sur 0 1009.9 2.5 81
2019-01-27 11:00:00 8.6 2 Sur 7 Este 0 1009.1 2.3 91
2019-01-27 10:00:00 7.3 6 Este 7 Este 0 1008.4 1.8 92
2019-01-27 09:00:00 6.8 5 Este 15 Nordeste 0 1007.4 0.9 92
2019-01-27 08:00:00 6.7 4 Este 7 Este 0 1006.8 0.2 90
2019-01-27 07:00:00 7.7 5 Sudeste 11 Nordeste 0 1006.6 0.1 91
2019-01-27 06:00:00 8.3 6 Norte 10 Oeste 0 1006.5 0 82
2019-01-27 05:00:00 8.6 4 Noroeste 16 Este 0 1006.6 0.3 82
2019-01-27 04:00:00 8.8 6 Nordeste 17 Oeste 0 1006.5 0.8 88
2019-01-27 03:00:00 9 10 Noroeste 18 Noroeste 0 1006.5 0.7 91
2019-01-27 02:00:00 9.3 14 Noroeste 29 Noroeste 1.6 1006.3 0 97
2019-01-27 01:00:00 9.1 7 Sur 13 Sur 1.6 1005.7 -0.8 98
2019-01-27 00:00:00 9.2 3 Sudoeste 11 Sur 0 1005.8 -0.4 91
2019-01-26 23:00:00 9 4 Sudeste 10 Norte 0 1006.3 0.3 93
2019-01-26 22:00:00 8.9 2 Noroeste 9 Sur 0 1006.5 0.5 91
2019-01-26 21:00:00 9 7 Sur 14 Sur 0 1006.2 0.2 92
2019-01-26 20:00:00 9.3 8 Sur 17 Sudeste 0 1006 0.1 89
2019-01-26 19:00:00 10.2 8 Sur 14 Sur 0 1006 -0.2 84
2019-01-26 18:00:00 12.5 8 Sudoeste 15 Sudoeste 0 1006 -0.5 73
2019-01-26 17:00:00 13.1 8 Sudoeste 18 Sudoeste 0 1005.9 -0.7 69
2019-01-26 16:00:00 12.5 8 Sudoeste 19 Sudoeste 0 1006.2 -1.3 69
2019-01-26 15:00:00 13 10 Sudoeste 19 Sudoeste 0 1006.5 -1.4 68
2019-01-26 14:00:00 13.6 7 Sudoeste 11 Sudoeste 0 1006.6 -1.5 66
2019-01-26 13:00:00 11.2 2 Noroeste 6 Noroeste 0 1007.5 -0.6 69
2019-01-26 12:00:00 9.4 4 Oeste 6 Sudoeste 0 1007.9 -0.1 77
2019-01-26 11:00:00 6.5 3 Sudoeste 13 Este 0 1008.1 0.9 86
2019-01-26 10:00:00 4.2 6 Nordeste 11 Nordeste 0 1008.1 1.2 89
2019-01-26 09:00:00 3.8 7 Este 13 Nordeste 0 1008 1.1 91
2019-01-26 08:00:00 3.8 6 Nordeste 10 Nordeste 0 1007.2 0.2 91
2019-01-26 07:00:00 4.7 3 Este 7 Este 0 1006.9 -0.5 94
2019-01-26 06:00:00 4.9 2 Este 4 Este 0 1006.9 -0.6 88
2019-01-26 05:00:00 4.6 3 Norte 10 Este 0 1007 -0.6 90
2019-01-26 04:00:00 5.5 8 Nordeste 10 Este 0 1007.4 -0.7 89
2019-01-26 03:00:00 5.7 4 Sur 7 Sur 0 1007.5 -0.5 90
2019-01-26 02:00:00 6.6 4 Este 6 Nordeste 0 1007.6 -0.9 86
2019-01-26 01:00:00 7.7 3 Sur 19 Nordeste 0 1008.1 -0.6 81
2019-01-26 00:00:00 8.7 8 Nordeste 19 Nordeste 0 1008 -0.5 78
2019-01-25 23:00:00 9.2 8 Nordeste 17 Nordeste 0 1008.5 -0.1 77
2019-01-25 22:00:00 9.8 5 Norte 19 Norte 0 1008.7 0 75
2019-01-25 21:00:00 10.2 6 Norte 19 Nordeste 0 1008.5 0.1 74
2019-01-25 20:00:00 10.8 9 Norte 25 Nordeste 0 1008.6 0.1 73
2019-01-25 19:00:00 11.7 5 Norte 19 Norte 0 1008.7 0.4 72
2019-01-25 18:00:00 13.5 10 Norte 26 Norte 0 1008.4 0.1 67
2019-01-25 17:00:00 14.5 11 Nordeste 27 Norte 0 1008.5 -0.6 63
2019-01-25 16:00:00 14.1 12 Norte 30 Nordeste 0 1008.3 -1.2 66
2019-01-25 15:00:00 14 14 Norte 30 Norte 0 1008.3 -1.5 65
2019-01-25 14:00:00 13.6 11 Norte 30 Norte 0 1009.1 -0.6 68
2019-01-25 13:00:00 13.2 12 Norte 32 Norte 0 1009.5 0.5 69
2019-01-25 12:00:00 13.1 9 Norte 30 Nordeste 0 1009.8 1.6 68
2019-01-25 11:00:00 12.1 10 Norte 26 Norte 0 1009.7 1.5 73
2019-01-25 10:00:00 9.6 4 Noroeste 12 Norte 0 1009 0.9 84
2019-01-25 09:00:00 9.2 5 Nordeste 17 Norte 0 1008.2 0.1 87
2019-01-25 08:00:00 9.3 5 Nordeste 9 Norte 0 1008.2 0 91
2019-01-25 07:00:00 8.7 2 Norte 6 Nordeste 0 1008.1 -0.4 93
2019-01-25 06:00:00 8.7 2 Este 11 Nordeste 0 1008.1 -0.1 95
2019-01-25 05:00:00 8.7 0 Calma 8 Sudeste 0 1008.2 -0.2 95
2019-01-25 04:00:00 9 4 Sudeste 11 Norte 0 1008.5 0.1 92
2019-01-25 03:00:00 9.8 4 Norte 9 Noroeste 0 1008.2 0.1 91
2019-01-25 02:00:00 10 4 Noroeste 14 Norte 0 1008.4 0.2 89
2019-01-25 01:00:00 10.2 3 Norte 15 Noroeste 0 1008.4 0.5 90
2019-01-25 00:00:00 10.3 9 Norte 18 Noroeste 0 1008.1 0.6 89
2019-01-24 23:00:00 10.6 8 Norte 14 Noroeste 0 1008.2 0.9 88
2019-01-24 22:00:00 11 6 Norte 11 Norte 0 1007.9 1.2 89
2019-01-24 21:00:00 11.5 4 Norte 15 Norte 0 1007.5 1.7 89
2019-01-24 20:00:00 12 5 Noroeste 14 Norte 0 1007.3 1.8 86
2019-01-24 19:00:00 12.4 8 Norte 24 Norte 0 1006.7 1.2 84
2019-01-24 18:00:00 12.8 11 Noroeste 23 Norte 0 1005.8 0.4 87
2019-01-24 17:00:00 13.6 13 Noroeste 25 Noroeste 0 1005.5 0 82
2019-01-24 16:00:00 13.5 14 Noroeste 29 Norte 0 1005.5 -0.2 83
2019-01-24 15:00:00 13.6 12 Noroeste 24 Noroeste 0 1005.4 -0.4 85
2019-01-24 14:00:00 13.1 10 Noroeste 18 Noroeste 0 1005.5 0.1 89
2019-01-24 13:00:00 12.8 10 Noroeste 15 Norte 0 1005.7 0.8 91
2019-01-24 12:00:00 12.5 9 Noroeste 19 Norte 0 1005.8 1.3 90
2019-01-24 11:00:00 11.9 9 Noroeste 16 Noroeste 0 1005.4 1.2 89
2019-01-24 10:00:00 11.6 5 Noroeste 14 Noroeste 0 1004.9 1.4 91
2019-01-24 09:00:00 11.5 8 Noroeste 16 Norte 0 1004.5 1 91
2019-01-24 08:00:00 11.8 8 Noroeste 19 Oeste 0 1004.2 0.6 92
2019-01-24 07:00:00 12 10 Noroeste 19 Noroeste 0 1003.5 -0.4 90
2019-01-24 06:00:00 11.6 8 Noroeste 17 Norte 0 1003.5 -0.4 95
2019-01-24 05:00:00 11.6 5 Noroeste 11 Noroeste 0 1003.6 -0.9 95
2019-01-24 04:00:00 11.6 4 Nordeste 7 Este 0 1003.9 -0.4 94
2019-01-24 03:00:00 11.7 2 Este 10 Norte 0 1003.9 -0.2 93
2019-01-24 02:00:00 11.6 5 Norte 15 Noroeste 0 1004.5 0.4 95
2019-01-24 01:00:00 11.5 6 Noroeste 13 Oeste 0.2 1004.3 0.2 97
2019-01-24 00:00:00 11.4 4 Sudoeste 13 Sudoeste 0 1004.1 0.3 96
2019-01-23 23:00:00 11.4 5 Noroeste 12 Norte 0.2 1004.1 0.6 97
2019-01-23 22:00:00 11.5 7 Norte 14 Norte 0 1004.1 0.8 95
2019-01-23 21:00:00 11.6 6 Noroeste 14 Noroeste 0 1003.8 0.8 93
2019-01-23 20:00:00 12 9 Noroeste 28 Noroeste 0 1003.5 0.7 91
2019-01-23 19:00:00 12.1 4 Noroeste 17 Oeste 0 1003.3 0.4 92
2019-01-23 18:00:00 12.6 8 Noroeste 30 Noroeste 0 1003 0 90
2019-01-23 17:00:00 13 12 Noroeste 34 Oeste 0 1002.8 -0.7 88
2019-01-23 16:00:00 13 18 Noroeste 32 Noroeste 0 1002.9 -1 89
2019-01-23 15:00:00 12.5 11 Oeste 20 Oeste 0 1003 -1.3 94
2019-01-23 14:00:00 12 6 Oeste 21 Oeste 0 1003.5 -0.6 95
2019-01-23 13:00:00 12 6 Oeste 19 Noroeste 0.2 1003.9 0 94
2019-01-23 12:00:00 11.2 8 Noroeste 21 Noroeste 0.2 1004.3 0.8 94
2019-01-23 11:00:00 10.9 8 Noroeste 16 Noroeste 0 1004.1 0.9 93
2019-01-23 10:00:00 11.2 8 Noroeste 27 Noroeste 0 1003.9 0.7 86
2019-01-23 09:00:00 10.8 11 Noroeste 31 Noroeste 0 1003.5 0.1 88
2019-01-23 08:00:00 10.5 17 Noroeste 31 Noroeste 0 1003.2 -0.3 92
2019-01-23 07:00:00 10.3 10 Noroeste 26 Noroeste 0 1003.2 -0.5 93
2019-01-23 06:00:00 10.3 8 Noroeste 20 Noroeste 0 1003.4 0.1 90
2019-01-23 05:00:00 10.2 8 Noroeste 19 Noroeste 0 1003.5 -0.5 89
2019-01-23 04:00:00 9.9 12 Noroeste 27 Noroeste 0 1003.7 -0.5 89
2019-01-23 03:00:00 9.2 5 Sudeste 19 Oeste 0 1003.3 -1.3 95
2019-01-23 02:00:00 9.3 11 Noroeste 18 Noroeste 0.2 1004 -1 97
2019-01-23 01:00:00 9.2 6 Norte 10 Noroeste 0.2 1004.2 -1.1 96
2019-01-23 00:00:00 9 0 Calma 9 Noroeste 0.2 1004.6 -0.7 95
2019-01-22 23:00:00 9 4 Norte 8 Nordeste 0 1005 -0.9 93
2019-01-22 22:00:00 9.2 4 Noroeste 8 Norte 0 1005.3 -0.6 90
2019-01-22 21:00:00 9 3 Sudeste 8 Sudoeste 0 1005.3 -0.3 90
2019-01-22 20:00:00 9.3 8 Oeste 17 Oeste 0 1005.9 -0.1 89
2019-01-22 19:00:00 9.6 4 Sudoeste 10 Sudoeste 0 1005.9 0.2 84
2019-01-22 18:00:00 9.8 3 Sudoeste 12 Oeste 0 1005.6 -0.7 83
2019-01-22 17:00:00 10.2 8 Oeste 15 Oeste 0 1006 -1 82
2019-01-22 16:00:00 10.4 5 Noroeste 13 Noroeste 0 1005.7 -0.6 85
2019-01-22 15:00:00 10.4 10 Noroeste 30 Norte 0 1006.3 0 83
2019-01-22 14:00:00 10 14 Noroeste 27 Norte 0.2 1007 0.1 92
2019-01-22 13:00:00 9.3 8 Norte 24 Sudoeste 3.6 1006.3 -1.4 100
2019-01-22 12:00:00 9 4 Sudoeste 15 Sur 2.2 1006.3 -1.8 100
2019-01-22 11:00:00 7.4 3 Norte 7 Sur 0.4 1006.9 -1.1 99
2019-01-22 10:00:00 7 0 Calma 5 Este 0 1007.7 -0.9 98
2019-01-22 09:00:00 6.8 3 Este 9 Noroeste 0 1008.1 -0.7 98
2019-01-22 08:00:00 6.9 3 Norte 10 Sudeste 0 1008 -1.3 97
2019-01-22 07:00:00 6.7 3 Sudoeste 7 Sudoeste 0 1008.6 -1.3 94
2019-01-22 06:00:00 6.7 3 Este 7 Nordeste 0 1008.8 -1.2 96
2019-01-22 05:00:00 6.5 0 Calma 8 Nordeste 0 1009.3 -1.8 95
2019-01-22 04:00:00 6.5 3 Nordeste 7 Sudoeste 0 1009.9 -1.3 95
2019-01-22 03:00:00 6.5 3 Nordeste 10 Este 0 1010 -1.5 93
2019-01-22 02:00:00 6.9 7 Nordeste 13 Nordeste 0 1011.1 0.1 91
2019-01-22 01:00:00 6.8 0 Calma 10 Este 0 1011.2 0.5 91
2019-01-22 00:00:00 7.5 6 Este 12 Este 0 1011.5 0.4 88
2019-01-21 23:00:00 6.8 6 Nordeste 10 Este 0 1011 -0.6 91
2019-01-21 22:00:00 7.8 6 Este 16 Este 0 1010.7 -0.4 83
2019-01-21 21:00:00 8.6 6 Este 12 Este 0 1011.1 0.4 80
2019-01-21 20:00:00 8.9 4 Nordeste 12 Nordeste 0 1011.6 0.7 82
2019-01-21 19:00:00 9 8 Nordeste 15 Noroeste 0 1011.1 -0.1 84
2019-01-21 18:00:00 10.2 8 Noroeste 12 Norte 0 1010.7 -0.5 79
2019-01-21 17:00:00 10.6 4 Noroeste 17 Noroeste 0 1010.9 -1.1 76
2019-01-21 16:00:00 11.1 14 Noroeste 21 Noroeste 0 1011.2 -1.3 72
2019-01-21 15:00:00 11.6 9 Noroeste 21 Norte 0 1011.2 -1.6 72
2019-01-21 14:00:00 11.6 11 Oeste 17 Oeste 0 1012 -0.7 72
2019-01-21 13:00:00 11.1 5 Oeste 13 Oeste 0 1012.5 0.3 77
2019-01-21 12:00:00 9.1 4 Norte 8 Norte 0 1012.8 1.1 86
2019-01-21 11:00:00 7.9 4 Nordeste 7 Nordeste 0 1012.7 1.2 91
2019-01-21 10:00:00 5.6 2 Nordeste 8 Norte 0 1012.2 1 98
2019-01-21 09:00:00 5.5 5 Nordeste 8 Este 0 1011.7 0.5 95
2019-01-21 08:00:00 5.5 0 Calma 6 Este 0 1011.5 0.5 97
2019-01-21 07:00:00 5.8 4 Nordeste 10 Noroeste 0 1011.2 0.2 98
2019-01-21 06:00:00 6.1 4 Nordeste 7 Norte 0 1011.2 0.1 97
2019-01-21 05:00:00 5.9 0 Calma 8 Nordeste 0 1011 -0.4 97
2019-01-21 04:00:00 6 3 Nordeste 6 Norte 0 1011 -0.3 96
2019-01-21 03:00:00 6.3 2 Noroeste 8 Norte 0 1011.1 0.4 95
2019-01-21 02:00:00 6.5 3 Sudeste 6 Oeste 0 1011.4 1 96
2019-01-21 01:00:00 6.6 3 Noroeste 8 Norte 0 1011.3 1.3 95
2019-01-21 00:00:00 7.2 4 Norte 8 Noroeste 0 1010.7 0.9 93
2019-01-20 23:00:00 7.5 3 Noroeste 11 Norte 0 1010.4 1 90
2019-01-20 22:00:00 8.1 7 Norte 11 Noroeste 0 1010 1.6 91
2019-01-20 21:00:00 8.5 7 Norte 19 Norte 0 1009.8 2 90
2019-01-20 20:00:00 9.2 6 Norte 22 Norte 0 1009.4 2.2 85
2019-01-20 19:00:00 9.7 5 Norte 20 Norte 0 1008.4 1.5 84
2019-01-20 18:00:00 11 9 Noroeste 26 Noroeste 0 1007.8 0.9 77
2019-01-20 17:00:00 11.4 9 Noroeste 27 Noroeste 0.2 1007.2 0.3 85
2019-01-20 16:00:00 11 10 Noroeste 24 Norte 0.2 1006.9 -0.6 85
2019-01-20 15:00:00 11.4 14 Noroeste 24 Norte 0.2 1006.9 -0.4 83
2019-01-20 14:00:00 11.8 14 Noroeste 27 Noroeste 0 1006.9 0.5 79
2019-01-20 13:00:00 10.7 11 Noroeste 17 Noroeste 0 1007.5 1.9 85
2019-01-20 12:00:00 9.7 9 Noroeste 18 Noroeste 0 1007.3 2.3 89
2019-01-20 11:00:00 8 3 Sudoeste 5 Sur 0 1006.4 2.1 93
2019-01-20 10:00:00 6.9 2 Norte 5 Nordeste 0 1005.6 1.8 95
2019-01-20 09:00:00 7.2 2 Sudoeste 6 Este 0 1005 1.9 94
2019-01-20 08:00:00 6.9 3 Sudeste 6 Noroeste 0 1004.3 1.2 94
2019-01-20 07:00:00 7 2 Sur 8 Nordeste 0 1003.8 1 95
2019-01-20 06:00:00 7.3 7 Noroeste 13 Noroeste 0 1003.1 1.2 91
2019-01-20 05:00:00 8.1 7 Noroeste 19 Noroeste 0 1003.1 1.8 88
2019-01-20 04:00:00 7.9 7 Norte 19 Noroeste 0 1002.8 2 90
2019-01-20 03:00:00 8.5 10 Noroeste 25 Norte 0 1001.9 2.3 87
2019-01-20 02:00:00 9.1 15 Noroeste 28 Noroeste 0 1001.3 2.8 86
2019-01-20 01:00:00 9.1 9 Noroeste 21 Noroeste 0 1000.8 3.9 86
2019-01-20 00:00:00 9.4 10 Noroeste 37 Norte 0 999.6 4 86
2019-01-19 23:00:00 9.9 10 Noroeste 35 Noroeste 0 998.5 4.9 90
2019-01-19 22:00:00 10.5 10 Norte 32 Norte 0 996.9 4.1 85
2019-01-19 21:00:00 11.4 15 Norte 43 Noroeste 0 995.6 3.1 87
2019-01-19 20:00:00 12.4 13 Noroeste 23 Noroeste 1 993.6 1.5 97
2019-01-19 19:00:00 12.4 4 Sudoeste 23 Oeste 0.2 992.8 0.6 98
2019-01-19 18:00:00 12.5 10 Oeste 26 Oeste 1 992.5 -0.1 99
2019-01-19 17:00:00 12.6 14 Sudoeste 39 Sudoeste 0.8 992.1 -1.5 100
2019-01-19 16:00:00 12.7 17 Sudoeste 41 Sudoeste 4.4 992.2 -3.1 100
2019-01-19 15:00:00 12.4 19 Sudoeste 43 Sudoeste 5.6 992.6 -4.1 100
2019-01-19 14:00:00 11.3 16 Sur 32 Sur 5.2 993.6 -3.6 99
2019-01-19 13:00:00 9.8 9 Sur 24 Sur 4.6 995.3 -2.5 100
2019-01-19 12:00:00 8.9 4 Noroeste 17 Noroeste 6.6 996.7 -1.6 98
2019-01-19 11:00:00 9.1 10 Sur 33 Sur 5.6 997.2 -1.6 97
2019-01-19 10:00:00 8.2 7 Sur 21 Sur 4 997.8 -2 97
2019-01-19 09:00:00 8.1 9 Sur 19 Sudoeste 2.6 998.3 -2.4 97
2019-01-19 08:00:00 8.2 7 Sur 22 Sudeste 2.2 998.8 -2.8 96
2019-01-19 07:00:00 7.9 10 Sur 23 Sur 2.2 999.8 -2.5 95
2019-01-19 06:00:00 7.8 9 Sur 18 Sur 1.6 1000.7 -2.1 96
2019-01-19 05:00:00 7.6 4 Norte 7 Norte 0.6 1001.6 -2 96
2019-01-19 04:00:00 7.6 4 Sur 8 Sur 0 1002.3 -1.9 95
2019-01-19 03:00:00 7.5 3 Norte 6 Norte 0 1002.8 -1.8 94
2019-01-19 02:00:00 7.6 3 Sudeste 6 Sudeste 0 1003.6 -1.1 95
2019-01-19 01:00:00 7.6 4 Sudeste 5 Sudeste 0 1004.2 -0.1 95
2019-01-19 00:00:00 7.5 3 Sudeste 7 Este 0 1004.6 0.1 96